KR-0426 weather

Bumil Station Irum Apartments Heliport
Busan, Busan Gwang'yeogsi, South Korea

Public forecast

Using degrees Celsius for public forecast. Weather courtesy of forecast.io.

Closest aviation weather report (METAR) to Bumil Station Irum Apartments Heliport

Closest report is Gimhae International Airport, 6.4 nm (11.8 km) WNW. Retrieved 2020/08/03 18:00 UTC (14 minutes ago):

RKPK 031800Z 12004KT 4800 BR FEW020 BKN200 25/23 Q1011

Closest aviation forecast (TAF) to Bumil Station Irum Apartments Heliport

Closest forecast is Gimhae International Airport, 6.4 nm (11.8 km) WNW. Retrieved 2020/08/03 18:00 UTC (14 minutes ago):

TAF RKPK 031700Z 0318/0424 18006KT 6000 SCT015 SCT030 BKN200 TN24/0320Z TX31/0405Z TEMPO 0318/0321 4800 BR SCT015 BKN025 BKN200 BECMG 0402/0403 18010KT BECMG 0410/0411 18006KT